Time;durP1;ratioP1;P1;durP2;ratioP2;P2;SDS_P1;SDS_P2;PMS_P1;PMS_P2;Temp;Humidity;BMP_temperature;BMP_pressure;BME280_temperature;BME280_humidity;BME280_pressure;Samples;Min_cycle;Max_cycle;Signal;HPM_P1;HPM_P2
2023/11/18 00:00:12;;;;;;;3.15;1.40;;;;;;;25.37;39.61;99573.22;4482831;32;34008;-57
2023/11/18 00:02:42;;;;;;;3.35;1.60;;;;;;;25.34;39.66;99566.31;4483223;32;34739;-58
2023/11/18 00:05:10;;;;;;;3.37;1.80;;;;;;;25.33;39.69;99575.59;4483017;32;34097;-59
2023/11/18 00:07:38;;;;;;;3.33;1.50;;;;;;;25.31;39.71;99575.00;4468696;32;33330;-58
2023/11/18 00:10:06;;;;;;;4.93;1.90;;;;;;;25.30;39.76;99573.34;4483355;32;35249;-59
2023/11/18 00:12:34;;;;;;;2.95;1.62;;;;;;;25.27;39.79;99584.75;4482835;32;33937;-58
2023/11/18 00:15:05;;;;;;;3.45;1.50;;;;;;;25.25;39.82;99577.88;4482852;32;34250;-59
2023/11/18 00:17:33;;;;;;;6.57;1.65;;;;;;;25.24;39.87;99589.87;4472443;32;33845;-58
2023/11/18 00:20:01;;;;;;;5.82;1.90;;;;;;;25.23;39.88;99588.19;4451667;32;33995;-59
2023/11/18 00:22:28;;;;;;;5.93;1.60;;;;;;;25.22;39.91;99589.28;4451589;32;33701;-58
2023/11/18 00:24:56;;;;;;;3.35;1.52;;;;;;;25.20;39.94;99597.72;4451617;32;33605;-57
2023/11/18 00:27:24;;;;;;;3.80;1.70;;;;;;;25.18;39.96;99592.53;4451876;32;33210;-57
2023/11/18 00:29:53;;;;;;;5.50;1.50;;;;;;;25.16;39.97;99586.44;4453996;32;34537;-59
2023/11/18 00:32:21;;;;;;;3.12;1.52;;;;;;;25.15;40.00;99589.44;4453891;32;33964;-58
2023/11/18 00:34:49;;;;;;;7.37;1.48;;;;;;;25.13;40.02;99594.28;4452458;32;33849;-60
2023/11/18 00:37:17;;;;;;;4.93;1.58;;;;;;;25.16;40.04;99591.91;4454114;32;33665;-58
2023/11/18 00:39:44;;;;;;;5.50;2.35;;;;;;;25.13;39.55;99600.62;4453528;32;33933;-59
2023/11/18 00:42:12;;;;;;;7.82;2.42;;;;;;;25.09;35.86;99596.72;4453071;32;34739;-59
2023/11/18 00:44:41;;;;;;;4.47;2.12;;;;;;;25.02;36.10;99593.25;4453619;32;35003;-59
2023/11/18 00:47:08;;;;;;;3.30;1.80;;;;;;;24.98;36.72;99592.06;4453768;32;34200;-57
2023/11/18 00:49:36;;;;;;;5.45;1.87;;;;;;;24.97;37.16;99604.06;4462364;32;33587;-58
2023/11/18 00:52:04;;;;;;;2.80;1.62;;;;;;;24.94;38.10;99596.34;4469696;32;34005;-57
2023/11/18 00:54:32;;;;;;;3.60;1.73;;;;;;;24.90;38.14;99593.28;4469295;32;34864;-59
2023/11/18 00:56:59;;;;;;;4.03;1.50;;;;;;;24.89;38.24;99593.50;4469235;32;34355;-59
2023/11/18 00:59:27;;;;;;;3.97;2.08;;;;;;;24.87;38.22;99590.19;4468486;32;34581;-59
2023/11/18 01:01:55;;;;;;;4.25;1.77;;;;;;;24.86;38.34;99600.28;4469288;32;34868;-59
2023/11/18 01:04:22;;;;;;;2.17;1.58;;;;;;;24.85;38.43;99601.34;4469337;32;34045;-60
2023/11/18 01:06:51;;;;;;;2.75;1.60;;;;;;;24.84;38.49;99604.31;4469404;32;33586;-58
2023/11/18 01:09:19;;;;;;;3.40;1.67;;;;;;;24.83;38.67;99603.50;4469385;32;34079;-59
2023/11/18 01:11:47;;;;;;;5.47;1.40;;;;;;;24.84;38.71;99596.97;4469127;32;34706;-58
2023/11/18 01:14:38;;;;;;;4.47;1.83;;;;;;;24.82;38.79;99610.03;4463173;32;34349;-59
2023/11/18 01:17:06;;;;;;;2.42;1.45;;;;;;;24.80;38.87;99612.16;4468843;32;33787;-59
2023/11/18 01:19:35;;;;;;;11.32;1.85;;;;;;;24.80;39.10;99616.78;4488266;31;33891;-59
2023/11/18 01:22:05;;;;;;;6.25;1.75;;;;;;;24.78;39.23;99602.56;4500687;31;34376;-59
2023/11/18 01:24:35;;;;;;;3.67;1.70;;;;;;;24.78;39.25;99618.94;4499834;31;33783;-59
2023/11/18 01:27:03;;;;;;;5.22;1.77;;;;;;;24.76;39.32;99612.87;4500663;31;33596;-59
2023/11/18 01:29:30;;;;;;;4.18;1.70;;;;;;;24.75;39.36;99622.13;4500805;31;33794;-58
2023/11/18 01:31:58;;;;;;;4.20;1.75;;;;;;;24.74;39.43;99606.84;4500678;31;33722;-59
2023/11/18 01:34:27;;;;;;;3.78;1.77;;;;;;;24.73;39.49;99616.09;4500547;31;35025;-59
2023/11/18 01:36:56;;;;;;;2.50;1.37;;;;;;;24.72;39.52;99614.44;4500333;31;33730;-59
2023/11/18 01:39:26;;;;;;;3.28;1.77;;;;;;;24.72;39.53;99611.72;4485245;31;33887;-59
2023/11/18 01:41:55;;;;;;;4.40;1.55;;;;;;;24.69;39.61;99602.91;4500774;31;33624;-58
2023/11/18 01:44:23;;;;;;;2.12;1.30;;;;;;;24.69;39.56;99608.38;4473273;31;34123;-58
2023/11/18 01:46:51;;;;;;;3.33;1.62;;;;;;;24.68;39.63;99611.34;4500656;31;34206;-58
2023/11/18 01:49:20;;;;;;;4.00;1.40;;;;;;;24.68;39.64;99614.09;4500339;31;33974;-59
2023/11/18 01:51:47;;;;;;;4.50;1.75;;;;;;;24.65;39.70;99612.66;4500257;31;34187;-58
2023/11/18 01:54:18;;;;;;;4.60;1.55;;;;;;;24.64;39.72;99611.00;4500449;31;35050;-58
2023/11/18 01:56:47;;;;;;;2.87;1.40;;;;;;;24.63;39.77;99620.25;4500418;31;33564;-59
2023/11/18 01:59:18;;;;;;;2.05;1.48;;;;;;;24.62;39.80;99612.28;4500218;31;35212;-59
2023/11/18 02:01:51;;;;;;;2.10;0.98;;;;;;;24.60;39.84;99609.81;4500772;31;34623;-58
2023/11/18 02:04:19;;;;;;;3.17;1.75;;;;;;;24.60;39.87;99622.63;4500180;31;33883;-59
2023/11/18 02:06:48;;;;;;;2.12;1.50;;;;;;;24.58;39.90;99622.88;4486576;31;34497;-59
2023/11/18 02:09:19;;;;;;;3.28;1.42;;;;;;;24.57;39.93;99625.81;4486163;31;33923;-58
2023/11/18 02:12:12;;;;;;;3.17;1.40;;;;;;;24.56;39.99;99624.16;4473741;31;33745;-58
2023/11/18 02:14:40;;;;;;;2.47;1.23;;;;;;;24.54;40.02;99632.59;4500098;31;34033;-59
2023/11/18 02:17:09;;;;;;;4.32;1.48;;;;;;;24.54;40.00;99629.88;4483052;32;33224;-59
2023/11/18 02:19:37;;;;;;;3.62;1.65;;;;;;;24.53;40.03;99632.81;4483558;32;34623;-56
2023/11/18 02:22:11;;;;;;;2.70;1.73;;;;;;;24.52;40.09;99626.53;4470554;32;34705;-59
2023/11/18 02:24:40;;;;;;;2.37;1.48;;;;;;;24.51;40.04;99633.06;4483322;32;34218;-59
2023/11/18 02:27:11;;;;;;;2.45;1.33;;;;;;;24.51;40.15;99626.78;4484442;32;33802;-59
2023/11/18 02:29:42;;;;;;;2.45;1.23;;;;;;;24.50;40.16;99627.84;4484296;32;33922;-59
2023/11/18 02:32:23;;;;;;;6.85;1.60;;;;;;;24.47;40.19;99626.41;4484239;32;34267;-59
2023/11/18 02:35:07;;;;;;;2.10;1.27;;;;;;;24.50;40.25;99633.31;4483337;32;33886;-59
2023/11/18 02:37:46;;;;;;;3.20;1.25;;;;;;;24.49;40.31;99648.03;4483063;32;34497;-58
2023/11/18 02:40:19;;;;;;;3.03;1.33;;;;;;;24.47;40.29;99652.88;4483073;32;33562;-59
2023/11/18 02:42:47;;;;;;;3.03;1.30;;;;;;;24.45;40.34;99653.13;4483396;32;33738;-57
2023/11/18 02:45:16;;;;;;;2.22;1.45;;;;;;;24.44;40.42;99651.47;4483165;32;34748;-59
2023/11/18 02:47:45;;;;;;;3.33;1.58;;;;;;;24.44;40.40;99646.00;4470482;32;33243;-58
2023/11/18 02:50:13;;;;;;;4.40;1.45;;;;;;;24.43;40.41;99634.28;4483742;32;34118;-60
2023/11/18 02:52:41;;;;;;;2.65;1.35;;;;;;;24.43;40.47;99638.88;4484146;32;34667;-59
2023/11/18 02:55:09;;;;;;;2.97;1.50;;;;;;;24.43;40.45;99636.13;4484245;32;34028;-58
2023/11/18 02:57:37;;;;;;;2.95;1.40;;;;;;;24.42;40.48;99640.78;4484198;32;33573;-59
2023/11/18 03:00:11;;;;;;;1.92;1.25;;;;;;;24.41;40.53;99644.56;4484032;32;33679;-59
2023/11/18 03:02:39;;;;;;;2.00;1.20;;;;;;;24.41;40.49;99665.56;4482929;32;35034;-59
2023/11/18 03:05:07;;;;;;;4.15;1.45;;;;;;;24.40;40.52;99650.28;4484080;32;33997;-58
2023/11/18 03:07:35;;;;;;;3.12;1.48;;;;;;;24.38;40.65;99663.28;4484250;32;33756;-57
2023/11/18 03:10:09;;;;;;;3.28;1.42;;;;;;;24.38;40.57;99660.56;4484130;32;33696;-58
2023/11/18 03:12:37;;;;;;;1.58;1.20;;;;;;;24.37;40.54;99654.28;4484401;32;34047;-55
2023/11/18 03:15:09;;;;;;;3.67;1.40;;;;;;;24.37;40.54;99661.62;4484061;32;33772;-58
2023/11/18 03:17:37;;;;;;;2.22;1.35;;;;;;;24.36;40.53;99659.97;4483950;32;33515;-59
2023/11/18 03:20:08;;;;;;;3.17;1.42;;;;;;;24.36;40.56;99662.69;4483852;32;33906;-58
2023/11/18 03:22:35;;;;;;;1.85;1.23;;;;;;;24.34;40.62;99671.09;4483919;32;34721;-58
2023/11/18 03:25:05;;;;;;;3.75;1.52;;;;;;;24.35;40.58;99674.66;4483919;32;34742;-60
2023/11/18 03:27:33;;;;;;;;;;;;;;;24.33;40.61;99674.06;4484001;32;33536;-59
2023/11/18 03:30:00;;;;;;;2.22;1.10;;;;;;;24.43;40.44;99675.19;4483817;32;33897;-57
2023/11/18 03:32:28;;;;;;;4.07;1.52;;;;;;;24.33;40.56;99672.16;4483761;32;34353;-57
2023/11/18 03:34:58;;;;;;;3.12;1.50;;;;;;;24.31;40.65;99682.47;4483671;32;34329;-56
2023/11/18 03:37:26;;;;;;;2.17;1.48;;;;;;;24.31;40.67;99673.47;4483707;32;33585;-59
2023/11/18 03:39:54;;;;;;;2.87;1.42;;;;;;;24.29;40.65;99672.84;4483675;32;33894;-59
2023/11/18 03:42:21;;;;;;;3.22;1.15;;;;;;;24.28;40.87;99677.47;4483569;32;33797;-59
2023/11/18 03:44:49;;;;;;;2.90;1.50;;;;;;;24.28;40.99;99685.66;4483672;32;33885;-58
2023/11/18 03:47:17;;;;;;;1.98;1.17;;;;;;;24.28;40.97;99696.56;4483654;32;34425;-58
2023/11/18 03:49:44;;;;;;;2.62;1.23;;;;;;;24.27;40.96;99694.91;4483378;32;33897;-58
2023/11/18 03:52:12;;;;;;;5.30;1.27;;;;;;;24.27;40.94;99705.00;4483820;32;33913;-59
2023/11/18 03:54:39;;;;;;;2.22;1.30;;;;;;;24.26;40.85;99695.16;4483532;32;34760;-59
2023/11/18 03:57:07;;;;;;;2.17;1.60;;;;;;;24.27;40.82;99694.09;4483321;32;34282;-59
2023/11/18 03:59:35;;;;;;;2.53;1.20;;;;;;;24.25;40.87;99702.50;4482200;32;32853;-59
2023/11/18 04:02:02;;;;;;;7.15;1.20;;;;;;;24.25;40.85;99707.97;4483754;32;33897;-59
2023/11/18 04:04:30;;;;;;;4.07;1.50;;;;;;;24.25;40.87;99709.84;4485202;31;33739;-56
2023/11/18 04:07:00;;;;;;;2.95;1.45;;;;;;;24.25;40.94;99723.47;4485523;32;33229;-58
2023/11/18 04:09:28;;;;;;;4.18;1.20;;;;;;;24.23;41.09;99711.97;4485336;32;33902;-56
2023/11/18 04:11:56;;;;;;;3.25;1.40;;;;;;;24.22;41.08;99719.31;4485455;32;34644;-60
2023/11/18 04:14:23;;;;;;;2.00;1.10;;;;;;;24.22;41.05;99719.31;4485394;32;34799;-58
2023/11/18 04:16:51;;;;;;;2.42;1.35;;;;;;;24.22;41.10;99729.41;4485196;32;34479;-59
2023/11/18 04:19:18;;;;;;;4.25;1.50;;;;;;;24.21;41.03;99719.56;4485313;32;33917;-60
2023/11/18 04:21:49;;;;;;;2.67;1.27;;;;;;;24.19;41.08;99728.78;4485306;32;34042;-59
2023/11/18 04:24:16;;;;;;;7.50;1.20;;;;;;;24.19;41.06;99725.25;4483968;32;34047;-58
2023/11/18 04:26:44;;;;;;;2.65;1.30;;;;;;;24.19;40.98;99725.25;4485626;32;33825;-59
2023/11/18 04:29:11;;;;;;;3.75;1.30;;;;;;;24.19;40.97;99733.41;4485234;32;34639;-57
2023/11/18 04:31:39;;;;;;;3.62;1.12;;;;;;;24.19;40.97;99727.97;4485137;32;34004;-57
2023/11/18 04:34:08;;;;;;;2.17;1.05;;;;;;;24.18;40.98;99738.03;4485131;32;34943;-58
2023/11/18 04:36:35;;;;;;;1.83;1.12;;;;;;;24.17;41.09;99736.38;4485174;32;34283;-58
2023/11/18 04:39:03;;;;;;;1.95;1.30;;;;;;;24.17;41.07;99736.38;4485061;32;34869;-59
2023/11/18 04:41:31;;;;;;;3.12;1.67;;;;;;;24.16;41.01;99745.62;4485179;32;33847;-58
2023/11/18 04:43:59;;;;;;;2.50;1.00;;;;;;;24.15;40.99;99741.25;4485175;32;34066;-58
2023/11/18 04:46:28;;;;;;;2.60;1.48;;;;;;;24.16;40.97;99745.62;4485007;32;34421;-59
2023/11/18 04:48:56;;;;;;;3.10;1.20;;;;;;;24.15;41.02;99751.28;4485266;32;33945;-56
2023/11/18 04:51:23;;;;;;;1.75;1.30;;;;;;;24.15;41.01;99754.88;4485420;32;34544;-58
2023/11/18 04:53:51;;;;;;;3.67;1.40;;;;;;;24.13;41.02;99748.81;4484936;32;33984;-58
2023/11/18 04:56:19;;;;;;;2.10;1.20;;;;;;;24.14;41.05;99755.09;4485209;32;34484;-58
2023/11/18 04:58:47;;;;;;;3.58;1.33;;;;;;;24.12;41.02;99757.22;4483826;32;33612;-59
2023/11/18 05:01:15;;;;;;;2.72;1.27;;;;;;;24.12;41.04;99744.44;4484980;32;34544;-59
2023/11/18 05:03:42;;;;;;;3.37;1.48;;;;;;;24.11;41.08;99745.50;4484983;32;34351;-59
2023/11/18 05:06:10;;;;;;;2.28;1.35;;;;;;;24.09;41.13;99744.88;4484952;32;34338;-58
2023/11/18 05:08:37;;;;;;;3.17;1.12;;;;;;;24.08;41.25;99747.84;4484901;32;33916;-58
2023/11/18 05:11:05;;;;;;;1.80;1.30;;;;;;;24.09;41.19;99755.78;4485007;32;34008;-58
2023/11/18 05:13:33;;;;;;;4.10;1.17;;;;;;;24.07;41.19;99747.03;4485060;32;34063;-59
2023/11/18 05:16:02;;;;;;;2.65;1.50;;;;;;;24.07;41.17;99762.56;4484826;32;32471;-59
2023/11/18 05:18:35;;;;;;;1.87;1.08;;;;;;;24.07;41.14;99762.56;4484741;32;34629;-58
2023/11/18 05:21:06;;;;;;;4.78;1.40;;;;;;;24.08;41.16;99762.31;4484923;32;34862;-58
2023/11/18 05:23:35;;;;;;;2.45;1.10;;;;;;;24.06;41.14;99769.91;4484921;32;34955;-59
2023/11/18 05:26:05;;;;;;;2.87;1.27;;;;;;;24.06;41.14;99780.81;4484867;32;33643;-58
2023/11/18 05:28:32;;;;;;;2.00;1.30;;;;;;;24.05;41.17;99775.56;4483447;32;33419;-59
2023/11/18 05:31:04;;;;;;;3.08;1.20;;;;;;;24.06;41.15;99777.22;4483860;32;33912;-59
2023/11/18 05:33:34;;;;;;;9.23;1.50;;;;;;;24.04;41.15;99769.28;4484827;32;34843;-58
2023/11/18 05:36:05;;;;;;;4.28;1.35;;;;;;;24.04;41.15;99773.91;4484659;32;33680;-60
2023/11/18 05:38:35;;;;;;;1.95;1.12;;;;;;;24.04;41.14;99777.47;4484753;32;33739;-58
2023/11/18 05:41:03;;;;;;;;;;;;;;;24.03;41.15;99767.63;4484935;32;34749;-59
2023/11/18 05:43:40;;;;;;;2.53;0.98;;;;;;;24.13;40.99;99778.81;4484844;32;34999;-58
2023/11/18 05:46:18;;;;;;;1.10;1.00;;;;;;;24.04;41.13;99780.19;4484867;32;34480;-59
2023/11/18 05:48:46;;;;;;;2.78;1.40;;;;;;;24.02;41.19;99784.22;4484664;32;33559;-58
2023/11/18 05:51:14;;;;;;;1.90;1.02;;;;;;;23.99;41.27;99793.69;4484753;32;33880;-59
2023/11/18 05:53:45;;;;;;;1.02;1.00;;;;;;;23.98;41.30;99794.75;4484604;32;33707;-59
2023/11/18 05:56:13;;;;;;;1.58;1.00;;;;;;;23.99;41.29;99801.84;4484747;32;34453;-58
2023/11/18 05:58:43;;;;;;;2.70;1.37;;;;;;;23.99;41.29;99795.56;4484614;32;34092;-60
2023/11/18 06:01:11;;;;;;;4.47;1.40;;;;;;;23.98;41.28;99800.19;4484539;32;33703;-60
2023/11/18 06:03:39;;;;;;;2.78;1.10;;;;;;;23.98;41.33;99800.19;4484460;32;34726;-59
2023/11/18 06:06:07;;;;;;;2.30;1.15;;;;;;;23.98;41.32;99808.38;4483409;32;33544;-58
2023/11/18 06:08:41;;;;;;;2.62;1.02;;;;;;;23.98;41.29;99805.66;4483207;32;34648;-60
2023/11/18 06:11:12;;;;;;;2.05;1.25;;;;;;;23.97;41.29;99809.44;4484603;32;34664;-57
2023/11/18 06:13:44;;;;;;;3.45;1.10;;;;;;;23.97;41.38;99809.44;4484550;32;34723;-58
2023/11/18 06:16:15;;;;;;;3.90;1.10;;;;;;;23.96;41.38;99799.56;4484574;32;34104;-59
2023/11/18 06:18:46;;;;;;;2.37;1.17;;;;;;;23.96;41.34;99810.47;4484374;32;33657;-59
2023/11/18 06:21:14;;;;;;;2.78;1.45;;;;;;;23.96;41.35;99815.94;4484331;32;33695;-60
2023/11/18 06:23:42;;;;;;;2.35;1.37;;;;;;;23.96;41.35;99807.75;4484497;32;34077;-60
2023/11/18 06:26:10;;;;;;;2.05;1.00;;;;;;;23.95;41.35;99794.38;4480166;32;33787;-60
2023/11/18 06:28:41;;;;;;;2.47;1.37;;;;;;;23.95;41.36;99795.19;4495819;31;34379;-60
2023/11/18 06:31:09;;;;;;;1.40;0.93;;;;;;;23.95;41.23;99794.38;4495995;31;33660;-59
2023/11/18 06:33:42;;;;;;;4.57;1.15;;;;;;;23.92;40.99;99804.69;4484077;32;34212;-59
2023/11/18 06:36:14;;;;;;;3.20;1.27;;;;;;;23.93;41.06;99810.97;4478773;32;33162;-60
2023/11/18 06:38:41;;;;;;;3.72;1.17;;;;;;;23.92;41.05;99818.31;4484143;32;33409;-58
2023/11/18 06:41:11;;;;;;;3.67;1.12;;;;;;;23.92;41.09;99814.72;4483777;32;33444;-58
2023/11/18 06:46:32;;;;;;;4.68;1.30;;;;;;;23.92;41.16;99828.34;4484182;32;33565;-58
2023/11/18 06:49:03;;;;;;;2.17;1.15;;;;;;;23.91;41.18;99819.34;4482321;32;34055;-56
2023/11/18 06:51:34;;;;;;;2.05;1.00;;;;;;;23.90;41.21;99831.31;4482982;32;33842;-58
2023/11/18 06:54:09;;;;;;;2.00;1.12;;;;;;;23.91;41.26;99834.88;4483039;32;34307;-59
2023/11/18 06:56:42;;;;;;;3.03;1.30;;;;;;;23.89;41.27;99834.28;4469690;32;33633;-59
2023/11/18 06:59:13;;;;;;;3.47;1.00;;;;;;;23.90;41.27;99838.66;4481823;32;34660;-57
2023/11/18 07:01:43;;;;;;;5.20;1.75;;;;;;;23.89;41.32;99835.09;4480061;32;33916;-57
2023/11/18 07:04:14;;;;;;;3.62;1.12;;;;;;;23.89;41.33;99843.28;4480655;32;34226;-58
2023/11/18 07:06:43;;;;;;;3.78;0.98;;;;;;;23.89;41.30;99851.44;4482751;32;33253;-58
2023/11/18 07:09:17;;;;;;;3.17;0.90;;;;;;;23.89;41.31;99848.72;4482776;32;34790;-58
2023/11/18 07:11:47;;;;;;;4.25;1.50;;;;;;;23.89;41.30;99856.91;4482492;32;34511;-58
2023/11/18 07:14:15;;;;;;;2.85;1.10;;;;;;;23.89;41.31;99861.53;4482800;32;34733;-59
2023/11/18 07:16:44;;;;;;;1.40;1.00;;;;;;;23.89;41.36;99865.06;4482962;32;33535;-59
2023/11/18 07:19:19;;;;;;;1.62;1.02;;;;;;;23.88;41.37;99865.31;4482427;32;33624;-59
2023/11/18 07:21:49;;;;;;;5.50;1.20;;;;;;;23.88;41.38;99871.59;4482823;32;33932;-53
2023/11/18 07:24:17;;;;;;;5.95;1.90;;;;;;;23.88;41.21;99874.31;4481248;32;33485;-55
2023/11/18 07:26:45;;;;;;;2.65;1.10;;;;;;;23.86;41.08;99873.69;4482423;32;34410;-53
2023/11/18 07:29:13;;;;;;;3.78;1.12;;;;;;;23.88;40.88;99870.78;4482570;32;33285;-54
2023/11/18 07:31:41;;;;;;;2.28;1.02;;;;;;;23.88;41.05;99868.88;4482332;32;33853;-56
2023/11/18 07:34:08;;;;;;;2.03;1.10;;;;;;;23.93;41.16;99873.63;4468327;32;34040;-55
2023/11/18 07:36:36;;;;;;;2.35;1.15;;;;;;;23.98;41.13;99865.59;4482292;32;33590;-51
2023/11/18 07:39:03;;;;;;;2.05;1.12;;;;;;;24.06;41.09;99868.03;4481489;32;33784;-55
2023/11/18 07:41:31;;;;;;;1.40;1.05;;;;;;;24.17;40.99;99859.06;4481215;32;33891;-55
2023/11/18 07:44:00;;;;;;;1.20;0.90;;;;;;;24.27;40.81;99868.59;4482374;32;33622;-56
2023/11/18 07:46:30;;;;;;;1.45;1.00;;;;;;;24.38;40.58;99873.28;4482187;32;33857;-56
2023/11/18 07:49:01;;;;;;;3.17;1.20;;;;;;;24.48;40.54;99870.00;4480211;32;81772;-53
2023/11/18 07:51:28;;;;;;;3.12;0.90;;;;;;;24.57;40.39;99866.69;4483377;32;33660;-56
2023/11/18 07:53:56;;;;;;;4.10;0.80;;;;;;;24.68;40.24;99863.19;4483162;32;33717;-56
2023/11/18 07:56:24;;;;;;;1.60;0.77;;;;;;;24.76;40.12;99885.75;4483351;32;34257;-53
2023/11/18 07:58:52;;;;;;;6.00;1.02;;;;;;;24.83;39.98;99884.59;4482965;32;33595;-55
2023/11/18 08:01:23;;;;;;;1.73;0.95;;;;;;;24.91;39.87;99894.34;4483139;32;33893;-54
2023/11/18 08:03:52;;;;;;;2.25;0.95;;;;;;;24.98;39.70;99905.97;4483046;32;34113;-57
2023/11/18 08:06:20;;;;;;;3.75;0.85;;;;;;;25.06;39.56;99910.28;4483219;32;33385;-53
2023/11/18 08:08:48;;;;;;;1.58;0.98;;;;;;;25.15;39.42;99909.72;4482972;32;33932;-50
2023/11/18 08:11:17;;;;;;;4.72;0.90;;;;;;;25.22;39.32;99912.31;4482989;32;34067;-51
2023/11/18 08:13:44;;;;;;;5.03;1.10;;;;;;;25.30;39.20;99897.50;4482941;32;34619;-50
2023/11/18 08:16:14;;;;;;;1.20;0.80;;;;;;;25.37;39.10;99896.34;4483018;32;33446;-55
2023/11/18 08:18:42;;;;;;;1.23;0.77;;;;;;;25.45;39.03;99898.69;4482963;32;34017;-57
2023/11/18 08:21:10;;;;;;;3.50;1.10;;;;;;;25.53;38.90;99896.69;4482852;32;35288;-59
2023/11/18 08:23:37;;;;;;;3.83;1.15;;;;;;;25.60;38.79;99895.50;4482835;32;34113;-57
2023/11/18 08:26:05;;;;;;;3.05;0.95;;;;;;;25.68;38.67;99902.47;4482844;32;34423;-50
2023/11/18 08:28:33;;;;;;;4.50;0.90;;;;;;;25.75;38.54;99899.63;4482581;32;34668;-60
2023/11/18 08:31:01;;;;;;;1.95;1.05;;;;;;;25.84;38.53;99910.00;4482924;32;33701;-59
2023/11/18 08:33:30;;;;;;;1.92;1.02;;;;;;;25.90;38.64;99902.72;4482767;32;34856;-59
2023/11/18 08:35:57;;;;;;;2.30;1.10;;;;;;;25.95;38.61;99902.84;4482880;32;33102;-61
2023/11/18 08:38:25;;;;;;;2.92;0.90;;;;;;;26.02;38.53;99887.16;4482292;32;34259;-61
2023/11/18 08:40:53;;;;;;;2.95;1.23;;;;;;;26.07;38.34;99908.28;4481908;32;34509;-61
2023/11/18 08:43:25;;;;;;;5.65;1.37;;;;;;;26.09;37.09;99887.81;4481531;32;34115;-61
2023/11/18 08:45:54;;;;;;;8.35;1.90;;;;;;;26.09;36.41;99882.34;4482808;32;34403;-62
2023/11/18 08:48:22;;;;;;;5.45;1.37;;;;;;;26.16;35.98;99880.31;4482889;32;34113;-61
2023/11/18 08:50:51;;;;;;;3.92;1.35;;;;;;;26.20;35.83;99886.94;4485302;32;33945;-61
2023/11/18 08:53:25;;;;;;;6.40;1.30;;;;;;;26.26;35.77;99884.34;4485097;32;34950;-62
2023/11/18 08:55:56;;;;;;;1.40;1.10;;;;;;;26.31;35.65;99889.91;4485230;32;33366;-62
2023/11/18 08:58:27;;;;;;;1.75;1.00;;;;;;;26.34;35.47;99883.94;4484183;32;34532;-62
2023/11/18 09:01:13;;;;;;;1.00;0.77;;;;;;;26.36;35.31;99896.31;4485044;32;34635;-61
2023/11/18 09:03:52;;;;;;;4.80;1.33;;;;;;;26.41;35.15;99885.44;4472756;32;34833;-62
2023/11/18 09:06:27;;;;;;;3.92;1.02;;;;;;;26.48;34.98;99877.13;4484951;32;34282;-62
2023/11/18 09:08:57;;;;;;;1.92;0.90;;;;;;;26.54;34.81;99886.28;4484880;32;34578;-61
2023/11/18 09:11:32;;;;;;;2.20;1.00;;;;;;;26.58;34.67;99891.00;4485103;32;33526;-61
2023/11/18 09:14:03;;;;;;;2.97;1.00;;;;;;;26.61;34.52;99885.03;4484983;32;34381;-61
2023/11/18 09:16:33;;;;;;;1.98;1.08;;;;;;;26.64;34.45;99886.47;4484919;32;34362;-61
2023/11/18 09:19:02;;;;;;;2.45;0.90;;;;;;;26.65;34.44;99894.41;4484776;32;33959;-61
2023/11/18 09:21:35;;;;;;;1.73;0.80;;;;;;;26.68;34.46;99882.97;4484837;32;34677;-62
2023/11/18 09:24:07;;;;;;;2.67;1.02;;;;;;;26.68;34.48;99887.63;4485157;32;34215;-62
2023/11/18 09:26:35;;;;;;;1.75;0.90;;;;;;;26.67;34.53;99889.53;4484987;32;33579;-62
2023/11/18 09:29:03;;;;;;;3.15;1.08;;;;;;;26.67;34.59;99916.06;4484811;32;33841;-62
2023/11/18 09:31:33;;;;;;;1.62;0.90;;;;;;;26.64;34.63;99900.97;4484742;32;34823;-62
2023/11/18 09:34:01;;;;;;;3.03;0.95;;;;;;;26.61;34.40;99912.41;4483654;32;34141;-62
2023/11/18 09:36:28;;;;;;;1.65;1.00;;;;;;;26.61;34.24;99911.56;4484184;32;33708;-62
2023/11/18 09:38:56;;;;;;;4.07;1.10;;;;;;;26.57;34.33;99915.88;4483560;32;34200;-62
2023/11/18 09:41:27;;;;;;;4.05;1.02;;;;;;;26.53;34.46;99910.03;4483999;32;33999;-61
2023/11/18 09:43:56;;;;;;;2.20;1.00;;;;;;;26.50;34.53;99913.28;4484293;32;34050;-61
2023/11/18 09:46:26;;;;;;;2.92;0.93;;;;;;;26.48;34.60;99914.59;4483639;31;33619;-62
2023/11/18 09:49:38;;;;;;;1.40;0.70;;;;;;;26.44;34.68;99926.03;4474787;31;33057;-61
2023/11/18 09:52:06;;;;;;;1.70;1.00;;;;;;;26.41;34.74;99906.50;4480615;32;34469;-62
2023/11/18 09:54:41;;;;;;;4.00;1.10;;;;;;;26.36;34.82;99914.63;4483243;32;34168;-63
2023/11/18 09:57:12;;;;;;;3.15;1.10;;;;;;;26.32;34.98;99918.91;4483540;32;33403;-62
2023/11/18 10:03:15;;;;;;;;;;;;;;;26.28;35.12;99904.06;4470775;31;34590;-61
2023/11/18 10:05:43;;;;;;;2.67;0.85;;;;;;;26.31;35.05;99912.63;4476037;32;35209;-61
2023/11/18 10:08:11;;;;;;;4.03;0.98;;;;;;;26.17;35.37;99908.50;4479716;31;33499;-63
2023/11/18 10:10:45;;;;;;;3.05;1.00;;;;;;;26.11;35.41;99907.56;4496010;31;34235;-62
2023/11/18 10:13:22;;;;;;;8.43;1.33;;;;;;;26.07;35.58;99900.09;4495244;31;33653;-62
2023/11/18 10:15:53;;;;;;;5.40;1.30;;;;;;;26.03;35.77;99894.28;4489110;31;34313;-62
2023/11/18 10:18:24;;;;;;;5.12;1.33;;;;;;;25.98;35.87;99902.37;4484780;31;34422;-63
2023/11/18 10:20:51;;;;;;;4.68;1.20;;;;;;;25.96;35.92;99915.44;4473387;31;34630;-62
2023/11/18 10:23:21;;;;;;;6.90;1.10;;;;;;;25.94;36.02;99912.13;4499937;31;34863;-62
2023/11/18 10:25:52;;;;;;;4.37;1.25;;;;;;;25.94;36.08;99887.50;4486180;31;34741;-62
2023/11/18 10:28:38;;;;;;;5.35;1.10;;;;;;;25.91;36.26;99893.44;4486136;31;33588;-62
2023/11/18 10:31:07;;;;;;;5.60;1.40;;;;;;;25.88;36.45;99893.91;4500135;31;33456;-62
2023/11/18 10:33:41;;;;;;;5.12;1.37;;;;;;;25.85;36.47;99902.63;4500267;31;33975;-62
2023/11/18 10:36:23;;;;;;;4.30;1.12;;;;;;;25.82;36.50;99903.91;4500102;31;34899;-63
2023/11/18 10:38:55;;;;;;;5.55;0.93;;;;;;;25.84;36.48;99893.59;4473635;31;33512;-63
2023/11/18 10:41:23;;;;;;;3.62;1.05;;;;;;;25.81;36.54;99872.19;4473461;31;35048;-59
2023/11/18 10:44:05;;;;;;;5.00;1.20;;;;;;;25.82;36.44;99886.69;4495464;31;33619;-60
2023/11/18 10:46:33;;;;;;;4.78;1.30;;;;;;;25.83;36.60;99883.72;4483435;31;34549;-60
2023/11/18 10:49:00;;;;;;;4.93;1.27;;;;;;;25.83;36.68;99891.09;4489288;31;33659;-60
2023/11/18 10:51:30;;;;;;;4.97;1.23;;;;;;;25.81;36.75;99890.50;4485174;31;34522;-60
2023/11/18 10:53:58;;;;;;;3.10;1.12;;;;;;;25.76;36.77;99896.69;4499766;31;34492;-60
2023/11/18 10:56:27;;;;;;;7.55;1.42;;;;;;;25.74;36.86;99897.94;4485942;31;34130;-60
2023/11/18 10:59:05;;;;;;;4.82;1.12;;;;;;;25.67;36.95;99878.97;4485259;31;32623;-60
2023/11/18 11:01:38;;;;;;;4.00;1.45;;;;;;;25.64;37.09;99883.00;4483912;31;33864;-60
2023/11/18 11:04:06;;;;;;;4.75;1.15;;;;;;;25.59;37.18;99873.84;4482806;32;34659;-60
2023/11/18 11:06:34;;;;;;;2.42;0.90;;;;;;;25.55;37.25;99878.97;4483975;32;34237;-60
2023/11/18 11:09:09;;;;;;;13.62;1.33;;;;;;;25.54;37.38;99909.25;4483233;32;34341;-60
2023/11/18 11:11:39;;;;;;;4.40;0.93;;;;;;;25.49;37.54;99901.78;4468807;32;33937;-59
2023/11/18 11:14:07;;;;;;;3.78;1.40;;;;;;;25.48;37.57;99907.50;4481201;32;33817;-60
2023/11/18 11:16:37;;;;;;;4.75;1.10;;;;;;;25.47;37.73;99912.13;4469607;32;34101;-60
2023/11/18 11:19:08;;;;;;;3.28;1.30;;;;;;;25.43;37.79;99919.13;4496421;31;34345;-60
2023/11/18 11:21:40;;;;;;;5.22;1.20;;;;;;;25.42;37.87;99922.94;4473240;31;34547;-60
2023/11/18 11:24:12;;;;;;;4.45;1.20;;;;;;;25.39;37.85;99937.06;4473016;31;34745;-61
2023/11/18 11:27:01;;;;;;;3.47;0.95;;;;;;;25.37;37.94;99925.53;4472413;31;34496;-61
2023/11/18 11:29:57;;;;;;;5.15;1.37;;;;;;;25.37;37.95;99947.41;4485291;31;33171;-61
2023/11/18 11:32:38;;;;;;;5.70;1.40;;;;;;;25.36;37.94;99949.28;4485152;31;33680;-61
2023/11/18 11:35:18;;;;;;;9.32;1.73;;;;;;;25.34;38.04;99956.06;4486089;31;33616;-61
2023/11/18 11:37:47;;;;;;;4.87;1.40;;;;;;;25.32;38.41;99975.41;4485743;31;33844;-60
2023/11/18 11:40:21;;;;;;;5.53;1.52;;;;;;;25.31;38.40;99972.91;4499064;31;34261;-61
2023/11/18 11:42:55;;;;;;;2.58;1.10;;;;;;;25.28;38.34;99996.06;4486123;31;33604;-60
2023/11/18 11:45:28;;;;;;;3.20;1.50;;;;;;;25.27;38.30;99990.81;4469231;32;33665;-60
2023/11/18 11:50:55;;;;;;;5.82;1.50;;;;;;;25.23;38.29;99968.63;4483019;32;33423;-61
2023/11/18 11:53:25;;;;;;;3.85;1.05;;;;;;;25.22;38.29;99988.78;4483551;32;33941;-61
2023/11/18 11:55:53;;;;;;;9.40;1.35;;;;;;;25.19;38.29;99984.66;4469372;32;33934;-61